Time;durP1;ratioP1;P1;durP2;ratioP2;P2;SDS_P1;SDS_P2;PMS_P1;PMS_P2;Temp;Humidity;BMP_temperature;BMP_pressure;BME280_temperature;BME280_humidity;BME280_pressure;Samples;Min_cycle;Max_cycle;Signal;HPM_P1;HPM_P2
2023/08/02 00:00:57;;;;;;;5.13;4.82;;;;;;;21.94;61.76;64270.31;5073961;28;20540;-76
2023/08/02 00:03:24;;;;;;;4.90;4.60;;;;;;;21.99;61.22;64276.06;5084268;28;20225;-77
2023/08/02 00:05:57;;;;;;;5.00;4.60;;;;;;;22.03;61.77;64277.13;5087477;28;20541;-76
2023/08/02 00:08:25;;;;;;;4.57;4.22;;;;;;;21.97;63.40;64278.63;5082084;28;20219;-77
2023/08/02 00:10:52;;;;;;;4.18;3.97;;;;;;;21.96;63.43;64275.53;5078415;28;20272;-75
2023/08/02 00:13:20;;;;;;;4.97;4.50;;;;;;;21.94;63.28;64270.31;5084032;28;20227;-77
2023/08/02 00:15:47;;;;;;;5.95;5.38;;;;;;;21.90;64.78;64266.66;5083328;28;20203;-76
2023/08/02 00:18:14;;;;;;;5.80;4.97;;;;;;;21.87;64.17;64270.78;5082689;28;20253;-76
2023/08/02 00:20:42;;;;;;;5.43;4.05;;;;;;;21.83;64.50;64259.34;5078233;28;20200;-75
2023/08/02 00:23:11;;;;;;;4.53;4.22;;;;;;;21.75;63.88;64253.56;5088256;28;20266;-76
2023/08/02 00:25:39;;;;;;;4.93;4.63;;;;;;;21.76;63.86;64252.00;5085359;28;20215;-77
2023/08/02 00:28:06;;;;;;;4.60;4.20;;;;;;;21.76;63.22;64257.19;5083523;28;20531;-77
2023/08/02 00:30:32;;;;;;;5.95;4.57;;;;;;;21.71;63.63;64249.91;5084383;28;20200;-77
2023/08/02 00:33:00;;;;;;;4.97;4.57;;;;;;;21.75;63.48;64253.56;5084580;28;20220;-78
2023/08/02 00:35:26;;;;;;;6.68;5.05;;;;;;;21.76;63.79;64254.59;5089324;28;20199;-76
2023/08/02 00:37:53;;;;;;;4.80;4.35;;;;;;;21.65;68.11;64243.09;5087891;28;20232;-73
2023/08/02 00:40:24;;;;;;;4.53;4.22;;;;;;;21.60;66.24;64238.41;5087887;28;20255;-76
2023/08/02 00:42:51;;;;;;;4.93;4.53;;;;;;;21.64;66.08;64242.56;5088024;28;20298;-75
2023/08/02 00:45:19;;;;;;;5.32;4.93;;;;;;;21.64;65.54;64239.47;5086988;28;20489;-75
2023/08/02 00:47:46;;;;;;;5.38;4.93;;;;;;;21.63;65.82;64244.13;5085601;28;20215;-76
2023/08/02 00:50:13;;;;;;;4.50;4.10;;;;;;;21.61;65.81;64236.84;5088127;28;20212;-76
2023/08/02 00:52:41;;;;;;;4.47;4.18;;;;;;;21.58;66.27;64233.19;5088613;28;20505;-75
2023/08/02 00:55:08;;;;;;;5.95;5.38;;;;;;;21.56;66.69;64234.22;5087853;28;20204;-76
2023/08/02 00:57:36;;;;;;;7.78;6.97;;;;;;;21.50;66.33;64222.25;5085904;28;20254;-76
2023/08/02 01:00:04;;;;;;;5.65;5.15;;;;;;;21.51;67.06;64229.00;5087072;28;20218;-77
2023/08/02 01:02:32;;;;;;;5.35;4.85;;;;;;;21.46;68.91;64218.59;5087898;28;20208;-76
2023/08/02 01:04:59;;;;;;;5.20;4.22;;;;;;;21.37;69.36;64216.97;5080057;28;20204;-76
2023/08/02 01:07:31;;;;;;;5.30;4.75;;;;;;;21.36;69.43;64210.75;5078300;28;20235;-76
2023/08/02 01:10:07;;;;;;;5.18;4.80;;;;;;;21.31;69.15;64210.69;5087984;28;20214;-76
2023/08/02 01:12:38;;;;;;;4.78;4.38;;;;;;;21.26;69.44;64200.28;5087161;28;20192;-77
2023/08/02 01:15:07;;;;;;;5.00;4.70;;;;;;;21.26;71.75;64205.47;5086271;28;20496;-76
2023/08/02 01:17:35;;;;;;;4.82;4.53;;;;;;;21.14;72.89;64187.25;5086854;28;20231;-77
2023/08/02 01:20:04;;;;;;;4.78;4.40;;;;;;;21.00;72.81;64175.72;5088943;28;20198;-76
2023/08/02 01:22:31;;;;;;;4.97;4.57;;;;;;;20.90;71.99;64164.75;5086144;28;20196;-76
2023/08/02 01:25:00;;;;;;;5.07;4.50;;;;;;;20.86;70.96;64161.09;5085343;28;20200;-75
2023/08/02 01:27:34;;;;;;;5.90;5.30;;;;;;;20.83;73.05;64157.44;5090102;28;20204;-74
2023/08/02 01:30:02;;;;;;;5.10;4.70;;;;;;;20.79;72.51;64153.25;5088480;28;20250;-76
2023/08/02 01:32:30;;;;;;;4.78;4.47;;;;;;;20.80;71.86;64149.13;5084675;28;20208;-76
2023/08/02 01:34:57;;;;;;;6.55;4.63;;;;;;;20.67;71.99;64143.84;5086126;28;20204;-76
2023/08/02 01:37:26;;;;;;;5.13;4.47;;;;;;;20.67;72.32;64139.19;5087751;28;20243;-75
2023/08/02 01:39:51;;;;;;;4.65;4.35;;;;;;;20.63;72.11;64135.03;5085430;28;20200;-76
2023/08/02 01:42:19;;;;;;;5.20;4.80;;;;;;;20.64;71.00;64136.06;5086330;28;20501;-77
2023/08/02 01:44:46;;;;;;;4.65;4.05;;;;;;;20.63;71.48;64139.66;5089336;28;20230;-75
2023/08/02 01:47:15;;;;;;;5.00;4.63;;;;;;;20.60;71.40;64137.06;5087542;28;20260;-76
2023/08/02 01:49:42;;;;;;;5.82;4.85;;;;;;;20.61;71.00;64135.53;5085554;28;20278;-75
2023/08/02 01:52:10;;;;;;;4.80;4.45;;;;;;;20.64;71.53;64143.81;5085790;28;20200;-76
2023/08/02 01:54:38;;;;;;;4.72;4.43;;;;;;;20.63;71.99;64137.09;5087228;28;20361;-76
2023/08/02 01:57:05;;;;;;;5.18;4.70;;;;;;;20.62;71.09;64138.63;5086361;28;20251;-76
2023/08/02 01:59:32;;;;;;;5.68;4.40;;;;;;;20.65;71.15;64134.53;5084142;28;20263;-74
2023/08/02 02:01:59;;;;;;;4.43;4.20;;;;;;;20.63;73.01;64135.03;5089436;28;20200;-75
2023/08/02 02:04:26;;;;;;;4.75;4.45;;;;;;;20.65;70.62;64139.69;5086949;28;20216;-76
2023/08/02 02:06:53;;;;;;;6.80;4.97;;;;;;;20.61;70.74;64135.00;5084801;28;20245;-75
2023/08/02 02:09:19;;;;;;;5.28;4.72;;;;;;;20.61;71.99;64135.00;5076309;28;20238;-76
2023/08/02 02:11:48;;;;;;;4.32;4.13;;;;;;;20.63;71.46;64135.03;5084282;28;20254;-76
2023/08/02 02:14:15;;;;;;;5.47;5.03;;;;;;;20.63;71.14;64134.50;5086485;28;20616;-76
2023/08/02 02:16:42;;;;;;;4.97;4.57;;;;;;;20.62;71.91;64133.47;5083992;28;20192;-75
2023/08/02 02:19:09;;;;;;;4.53;4.13;;;;;;;20.56;73.74;64129.78;5090797;28;20228;-76
2023/08/02 02:21:37;;;;;;;4.63;4.32;;;;;;;20.51;74.74;64125.09;5087035;28;20203;-76
2023/08/02 02:24:04;;;;;;;5.35;4.95;;;;;;;20.49;74.46;64119.88;5083782;28;20412;-76
2023/08/02 02:26:31;;;;;;;5.50;4.95;;;;;;;20.41;74.59;64114.66;5072208;28;20201;-76
2023/08/02 02:29:00;;;;;;;6.05;5.15;;;;;;;20.37;74.09;64112.53;5087807;28;20249;-75
2023/08/02 02:31:27;;;;;;;5.43;5.03;;;;;;;20.37;73.87;64110.47;5085431;28;20267;-76
2023/08/02 02:33:54;;;;;;;5.20;4.80;;;;;;;20.36;74.22;64106.81;5083275;28;20216;-77
2023/08/02 02:36:21;;;;;;;4.88;4.57;;;;;;;20.41;74.80;64108.94;5089525;28;20206;-77
2023/08/02 02:38:47;;;;;;;4.97;4.57;;;;;;;20.40;74.37;64113.59;5086743;28;20243;-75
2023/08/02 02:41:14;;;;;;;5.20;4.80;;;;;;;20.45;74.12;64120.88;5085491;28;20579;-76
2023/08/02 02:43:41;;;;;;;5.50;5.10;;;;;;;20.47;74.45;64120.91;5081820;28;20228;-76
2023/08/02 02:46:10;;;;;;;5.38;4.85;;;;;;;20.47;76.78;64120.91;5080660;28;20264;-76
2023/08/02 02:48:37;;;;;;;6.28;5.32;;;;;;;20.50;76.88;64120.94;5079725;28;20221;-77
2023/08/02 02:51:04;;;;;;;5.88;5.38;;;;;;;20.53;76.34;64127.19;5085608;28;20207;-76
2023/08/02 02:53:31;;;;;;;5.45;4.95;;;;;;;20.56;75.13;64127.19;5086320;28;20227;-75
2023/08/02 02:55:58;;;;;;;5.50;5.05;;;;;;;20.62;74.38;64136.56;5081099;28;20379;-76
2023/08/02 02:58:25;;;;;;;6.85;5.80;;;;;;;20.67;74.10;64136.09;5084217;28;20228;-75
2023/08/02 03:00:53;;;;;;;5.75;5.05;;;;;;;20.73;74.52;64147.53;5084989;28;20200;-77
2023/08/02 03:03:22;;;;;;;5.75;5.25;;;;;;;20.78;74.02;64155.31;5083203;28;20222;-76
2023/08/02 03:05:48;;;;;;;4.90;4.53;;;;;;;20.77;74.65;64143.41;5083649;28;20313;-76
2023/08/02 03:08:16;;;;;;;5.80;5.40;;;;;;;20.80;75.65;64146.53;5086670;28;20224;-74
2023/08/02 03:10:43;;;;;;;6.13;5.63;;;;;;;20.70;76.25;64141.81;5085035;28;20542;-76
2023/08/02 03:13:09;;;;;;;5.47;5.07;;;;;;;20.67;76.73;64138.69;5085488;28;20232;-76
2023/08/02 03:15:36;;;;;;;8.35;6.22;;;;;;;20.61;77.12;64138.09;5079128;28;20246;-75
2023/08/02 03:18:03;;;;;;;8.85;5.97;;;;;;;20.45;78.41;64116.22;5085065;28;20246;-75
2023/08/02 03:20:32;;;;;;;6.38;5.70;;;;;;;20.23;81.08;64093.28;5083640;28;20216;-76
2023/08/02 03:22:59;;;;;;;5.90;5.50;;;;;;;20.05;83.44;64073.94;5084475;28;20234;-75
2023/08/02 03:25:26;;;;;;;6.60;5.97;;;;;;;19.95;85.17;64066.09;5083057;28;20206;-77
2023/08/02 03:27:52;;;;;;;6.22;5.72;;;;;;;19.97;84.86;64068.69;5087249;28;20226;-75
2023/08/02 03:30:20;;;;;;;6.75;5.85;;;;;;;20.00;84.40;64073.91;5085370;28;20204;-76
2023/08/02 03:32:47;;;;;;;6.75;5.85;;;;;;;20.10;84.19;64081.75;5082975;28;20208;-76
2023/08/02 03:35:14;;;;;;;5.85;5.40;;;;;;;20.03;87.85;64074.97;5083801;28;20200;-76
2023/08/02 03:37:43;;;;;;;7.00;5.55;;;;;;;19.87;89.31;64058.28;5083082;28;20295;-77
2023/08/02 03:40:11;;;;;;;6.22;5.65;;;;;;;19.90;89.11;64058.81;5085341;28;20204;-77
2023/08/02 03:42:38;;;;;;;8.25;5.60;;;;;;;19.99;87.60;64070.78;5083587;28;20208;-76
2023/08/02 03:45:06;;;;;;;6.18;5.57;;;;;;;19.98;87.43;64069.22;5082941;28;20207;-76
2023/08/02 03:47:33;;;;;;;6.30;5.63;;;;;;;20.05;87.30;64071.38;5084054;28;20207;-76
2023/08/02 03:50:00;;;;;;;6.50;5.90;;;;;;;20.07;86.94;64073.97;5085504;28;20267;-75
2023/08/02 03:52:30;;;;;;;6.85;5.80;;;;;;;20.14;87.24;64083.34;5083010;28;20204;-75
2023/08/02 03:54:58;;;;;;;5.38;4.97;;;;;;;20.21;86.00;64093.75;5083103;28;20200;-76
2023/08/02 03:57:25;;;;;;;6.10;5.60;;;;;;;20.29;85.91;64099.00;5081791;28;20241;-75
2023/08/02 03:59:52;;;;;;;9.40;5.85;;;;;;;20.34;84.46;64109.94;5085410;28;20257;-76
2023/08/02 04:02:19;;;;;;;5.95;5.45;;;;;;;20.32;84.75;64104.72;5083975;28;20207;-77
2023/08/02 04:04:46;;;;;;;5.90;5.40;;;;;;;20.06;87.74;64074.97;5080934;28;20232;-76
2023/08/02 04:07:13;;;;;;;6.72;5.35;;;;;;;19.90;89.35;64060.88;5085571;28;20508;-77
2023/08/02 04:09:42;;;;;;;6.43;5.85;;;;;;;20.07;90.12;64076.53;5085869;28;20264;-77
2023/08/02 04:12:11;;;;;;;6.93;6.25;;;;;;;20.24;88.15;64096.88;5086826;28;20271;-77
2023/08/02 04:14:38;;;;;;;5.97;5.57;;;;;;;20.36;87.50;64109.41;5086036;28;20235;-76
2023/08/02 04:17:05;;;;;;;6.88;6.18;;;;;;;20.48;85.63;64116.25;5087071;28;20191;-76
2023/08/02 04:19:34;;;;;;;6.00;5.50;;;;;;;20.64;84.42;64132.94;5088037;28;20326;-76
2023/08/02 04:22:01;;;;;;;6.78;5.80;;;;;;;20.81;81.78;64157.94;5087910;28;20202;-78
2023/08/02 04:24:28;;;;;;;6.55;6.00;;;;;;;20.92;81.42;64164.78;5086695;28;20245;-77
2023/08/02 04:26:55;;;;;;;6.82;6.32;;;;;;;21.07;79.66;64179.94;5088045;28;20438;-76
2023/08/02 04:29:23;;;;;;;7.28;5.60;;;;;;;21.19;77.13;64195.56;5088118;28;20247;-77
2023/08/02 04:31:50;;;;;;;5.38;5.07;;;;;;;21.34;78.33;64211.25;5087707;28;20232;-77
2023/08/02 04:34:18;;;;;;;6.30;5.72;;;;;;;21.34;79.96;64210.72;5089767;28;20220;-77
2023/08/02 04:36:45;;;;;;;6.85;6.18;;;;;;;21.49;78.80;64228.97;5089327;28;20211;-77
2023/08/02 04:39:15;;;;;;;6.15;5.65;;;;;;;21.66;76.51;64241.56;5086624;28;20259;-77
2023/08/02 04:41:42;;;;;;;5.70;5.30;;;;;;;21.79;77.55;64253.09;5087511;28;20208;-77
2023/08/02 04:44:11;;;;;;;6.90;6.30;;;;;;;21.95;78.34;64268.78;5088335;28;20254;-76
2023/08/02 04:46:40;;;;;;;7.28;6.68;;;;;;;22.05;75.07;64284.41;5088793;28;20211;-77
2023/08/02 04:49:07;;;;;;;6.95;6.32;;;;;;;22.17;75.33;64299.53;5088131;28;20223;-79
2023/08/02 04:51:36;;;;;;;6.60;6.10;;;;;;;22.20;77.45;64297.47;5089982;28;20210;-77
2023/08/02 04:54:04;;;;;;;6.25;5.80;;;;;;;22.30;76.66;64310.53;5089461;28;20228;-77
2023/08/02 04:56:31;;;;;;;7.07;6.47;;;;;;;22.41;75.51;64322.56;5086748;28;20266;-75
2023/08/02 04:58:58;;;;;;;8.98;6.90;;;;;;;22.31;72.31;64308.97;5086182;28;20512;-77
2023/08/02 05:01:25;;;;;;;7.13;6.47;;;;;;;22.12;75.46;64289.13;5089328;28;20230;-76
2023/08/02 05:03:54;;;;;;;10.13;7.00;;;;;;;22.23;76.15;64300.59;5087987;28;20224;-77
2023/08/02 05:06:21;;;;;;;8.38;6.65;;;;;;;22.20;74.85;64300.59;5076357;28;20204;-76
2023/08/02 05:08:48;;;;;;;10.18;7.97;;;;;;;22.29;74.70;64306.88;5088849;28;20438;-77
2023/08/02 05:11:14;;;;;;;10.27;7.68;;;;;;;22.28;77.49;64308.97;5089086;28;20204;-76
2023/08/02 05:13:41;;;;;;;7.38;6.75;;;;;;;22.40;72.68;64321.50;5086375;28;20232;-76
2023/08/02 05:16:13;;;;;;;8.55;7.35;;;;;;;22.47;74.12;64326.22;5085566;28;20203;-77
2023/08/02 05:18:40;;;;;;;7.68;7.05;;;;;;;22.41;73.54;64319.44;5087588;28;20228;-76
2023/08/02 05:21:12;;;;;;;8.10;6.85;;;;;;;22.53;71.40;64335.09;5088056;28;20249;-76
2023/08/02 05:23:41;;;;;;;9.27;8.00;;;;;;;22.66;71.74;64343.50;5089227;28;20525;-76
2023/08/02 05:26:09;;;;;;;8.30;7.03;;;;;;;22.66;76.35;64346.09;5086251;28;20196;-77
2023/08/02 05:28:37;;;;;;;10.32;7.63;;;;;;;22.69;72.12;64348.72;5086859;28;20278;-77
2023/08/02 05:31:08;;;;;;;12.13;7.20;;;;;;;22.74;72.44;64353.97;5084132;28;20203;-77
2023/08/02 05:33:35;;;;;;;10.93;7.63;;;;;;;22.75;72.27;64357.59;5085357;28;20239;-75
2023/08/02 05:36:02;;;;;;;12.55;7.20;;;;;;;22.27;75.89;64302.72;5083180;28;20238;-76
2023/08/02 05:38:31;;;;;;;9.00;7.55;;;;;;;22.55;75.17;64334.63;5089192;28;20235;-76
2023/08/02 05:41:01;;;;;;;11.02;8.02;;;;;;;22.44;73.86;64325.16;5085799;28;20269;-76
2023/08/02 05:43:28;;;;;;;15.35;8.52;;;;;;;22.04;77.81;64281.28;5086132;28;20287;-76
2023/08/02 05:45:55;;;;;;;13.00;7.57;;;;;;;22.30;77.35;64310.53;5086452;28;20269;-76
2023/08/02 05:48:23;;;;;;;11.65;7.88;;;;;;;22.52;73.89;64328.84;5087337;28;20232;-75
2023/08/02 05:50:50;;;;;;;12.88;8.32;;;;;;;22.68;73.85;64345.06;5086275;28;20263;-77
2023/08/02 05:53:17;;;;;;;11.77;7.88;;;;;;;22.60;73.08;64339.84;5085111;28;20279;-77
2023/08/02 05:55:47;;;;;;;18.08;8.95;;;;;;;22.59;72.65;64335.69;5087899;28;20208;-76
2023/08/02 05:58:14;;;;;;;11.18;8.70;;;;;;;22.68;72.64;64347.69;5087970;28;20239;-76
2023/08/02 06:00:41;;;;;;;13.82;8.35;;;;;;;22.54;74.49;64338.22;5084603;28;20222;-77
2023/08/02 06:03:08;;;;;;;17.33;9.30;;;;;;;22.36;74.51;64314.75;5085521;28;20255;-75
2023/08/02 06:05:35;;;;;;;11.32;8.82;;;;;;;21.97;79.24;64273.44;5087330;28;20263;-76
2023/08/02 06:08:02;;;;;;;14.02;8.40;;;;;;;21.91;81.26;64262.50;5074532;28;20240;-77
2023/08/02 06:10:30;;;;;;;15.77;8.70;;;;;;;22.18;80.24;64297.97;5078275;28;20441;-76
2023/08/02 06:12:58;;;;;;;11.43;8.48;;;;;;;22.44;78.38;64325.16;5085219;28;20231;-76
2023/08/02 06:15:25;;;;;;;11.48;9.32;;;;;;;22.36;76.42;64311.63;5088199;28;20196;-75
2023/08/02 06:17:52;;;;;;;11.20;9.52;;;;;;;22.29;77.62;64304.81;5086691;28;20415;-75
2023/08/02 06:20:19;;;;;;;10.23;9.13;;;;;;;22.35;76.13;64313.69;5078515;28;20205;-76
2023/08/02 06:22:46;;;;;;;9.57;8.77;;;;;;;22.65;75.39;64347.13;5077277;28;20238;-76
2023/08/02 06:25:13;;;;;;;16.13;10.07;;;;;;;23.05;72.34;64388.44;5080951;28;20252;-76
2023/08/02 06:27:40;;;;;;;12.13;8.95;;;;;;;23.30;70.17;64412.00;5072670;28;20239;-76
2023/08/02 06:30:09;;;;;;;12.30;8.43;;;;;;;23.09;71.21;64387.44;5084958;28;20208;-77
2023/08/02 06:32:36;;;;;;;16.05;9.00;;;;;;;23.23;70.29;64404.69;5085447;28;20196;-76
2023/08/02 06:35:03;;;;;;;11.70;8.18;;;;;;;23.27;68.83;64408.84;5087264;28;20355;-76
2023/08/02 06:37:30;;;;;;;9.75;8.63;;;;;;;23.59;68.60;64444.97;5086982;28;20200;-76
2023/08/02 06:39:57;;;;;;;10.10;8.43;;;;;;;23.83;65.84;64467.47;5081508;28;20224;-76
2023/08/02 06:42:24;;;;;;;10.60;8.50;;;;;;;24.09;64.52;64497.28;5088191;28;20212;-76
2023/08/02 06:44:51;;;;;;;10.88;8.60;;;;;;;24.23;64.84;64511.94;5086079;28;20234;-77
2023/08/02 06:47:20;;;;;;;11.23;8.18;;;;;;;24.38;62.05;64525.06;5084162;28;20227;-76
2023/08/02 06:49:47;;;;;;;10.05;9.05;;;;;;;24.72;60.90;64560.69;5083849;28;20216;-77
2023/08/02 06:52:14;;;;;;;14.07;8.93;;;;;;;25.08;59.41;64600.47;5086420;28;20216;-76
2023/08/02 06:54:41;;;;;;;11.52;8.48;;;;;;;25.29;58.27;64619.34;5086190;28;20228;-76
2023/08/02 06:57:08;;;;;;;11.52;9.07;;;;;;;25.40;58.28;64634.03;5082857;28;20507;-75
2023/08/02 06:59:35;;;;;;;28.88;9.93;;;;;;;25.62;57.36;64657.06;5086425;28;20232;-76
2023/08/02 07:02:02;;;;;;;13.70;9.18;;;;;;;25.69;57.75;64663.88;5088401;28;20200;-76
2023/08/02 07:04:30;;;;;;;12.63;9.07;;;;;;;25.88;57.93;64686.41;5086187;28;20406;-77
2023/08/02 07:06:57;;;;;;;12.10;8.48;;;;;;;26.03;56.22;64694.84;5074228;28;20246;-76
2023/08/02 07:09:24;;;;;;;10.73;9.18;;;;;;;26.03;55.01;64697.44;5083417;28;20615;-77
2023/08/02 07:11:51;;;;;;;12.02;9.05;;;;;;;25.92;56.13;64685.88;5072235;28;20215;-76
2023/08/02 07:14:19;;;;;;;9.77;8.18;;;;;;;25.85;55.77;64680.66;5078851;28;20220;-76
2023/08/02 07:16:46;;;;;;;9.45;8.55;;;;;;;25.77;56.77;64669.66;5082871;28;20276;-77
2023/08/02 07:19:13;;;;;;;10.95;9.73;;;;;;;25.72;56.46;64672.75;5083375;28;20251;-78
2023/08/02 07:21:41;;;;;;;9.88;8.88;;;;;;;25.71;57.37;64666.50;5084302;28;20207;-76
2023/08/02 07:24:08;;;;;;;12.38;9.20;;;;;;;25.42;56.62;64633.50;5079947;28;20217;-77
2023/08/02 07:26:36;;;;;;;10.18;9.18;;;;;;;25.16;57.60;64608.84;5079591;28;20200;-77
2023/08/02 07:29:03;;;;;;;11.90;9.43;;;;;;;25.35;57.70;64625.63;5075908;28;20259;-77
2023/08/02 07:31:31;;;;;;;11.80;10.07;;;;;;;25.47;58.76;64646.03;5077721;28;20265;-75
2023/08/02 07:33:58;;;;;;;14.13;10.23;;;;;;;25.56;57.28;64647.66;5079108;28;20452;-79
2023/08/02 07:36:25;;;;;;;14.48;10.95;;;;;;;25.51;57.34;64645.00;5079270;28;20200;-76
2023/08/02 07:38:53;;;;;;;14.25;11.43;;;;;;;25.64;56.69;64659.16;5092620;28;20291;-76
2023/08/02 07:41:21;;;;;;;13.18;9.60;;;;;;;25.76;56.90;64668.59;5084654;28;20270;-76
2023/08/02 07:43:48;;;;;;;10.15;8.63;;;;;;;25.89;58.29;64682.75;5082394;28;20283;-76
2023/08/02 07:46:19;;;;;;;10.50;9.43;;;;;;;26.16;55.36;64713.69;5077642;28;20203;-77
2023/08/02 07:48:46;;;;;;;10.65;9.32;;;;;;;26.27;54.38;64722.06;5079780;28;20253;-76
2023/08/02 07:51:14;;;;;;;10.70;9.70;;;;;;;26.12;54.61;64704.28;5079692;28;20218;-76
2023/08/02 07:53:40;;;;;;;12.75;9.20;;;;;;;26.43;54.45;64740.94;5074240;28;20222;-76
2023/08/02 07:56:09;;;;;;;9.75;8.80;;;;;;;26.52;53.59;64756.13;5073151;28;20201;-76
2023/08/02 07:58:37;;;;;;;9.40;8.68;;;;;;;26.41;53.33;64736.75;5079533;28;20243;-77
2023/08/02 08:01:08;;;;;;;9.68;8.77;;;;;;;26.62;53.13;64761.41;5077723;28;20216;-77
2023/08/02 08:03:36;;;;;;;9.73;8.80;;;;;;;26.75;53.09;64777.16;5079270;28;20211;-76
2023/08/02 08:06:10;;;;;;;12.10;9.00;;;;;;;26.97;52.61;64795.00;5077452;28;20200;-78
2023/08/02 08:08:37;;;;;;;13.50;9.32;;;;;;;27.20;52.37;64819.63;5072864;28;20312;-76
2023/08/02 08:11:04;;;;;;;13.05;8.38;;;;;;;27.38;51.86;64840.09;5081843;28;20328;-78
2023/08/02 08:13:32;;;;;;;10.32;8.40;;;;;;;27.48;50.83;64851.13;5073074;28;20292;-77
2023/08/02 08:16:00;;;;;;;8.30;7.60;;;;;;;27.43;50.36;64850.59;5077217;28;20202;-77
2023/08/02 08:18:30;;;;;;;7.93;6.85;;;;;;;27.55;49.15;64858.47;5074859;28;20251;-77
2023/08/02 08:20:57;;;;;;;7.72;6.95;;;;;;;27.49;49.61;64849.53;5077810;28;20205;-77
2023/08/02 08:23:24;;;;;;;7.13;6.55;;;;;;;27.66;48.77;64867.41;5076328;28;20216;-77
2023/08/02 08:25:51;;;;;;;9.00;8.20;;;;;;;27.72;48.80;64878.94;5077979;28;20200;-78
2023/08/02 08:28:18;;;;;;;8.20;7.40;;;;;;;27.54;48.75;64857.44;5076764;28;20220;-77
2023/08/02 08:30:47;;;;;;;7.00;6.50;;;;;;;27.68;47.49;64866.34;5076236;28;20208;-76
2023/08/02 08:33:14;;;;;;;7.28;6.68;;;;;;;27.65;47.19;64866.34;5071174;28;20270;-78
2023/08/02 08:35:41;;;;;;;8.90;7.00;;;;;;;27.84;46.69;64888.91;5077866;28;20222;-78
2023/08/02 08:38:08;;;;;;;10.63;7.22;;;;;;;27.87;48.05;64886.81;5076728;28;20227;-76
2023/08/02 08:40:37;;;;;;;8.73;7.05;;;;;;;27.93;47.32;64898.38;5076518;28;20259;-76
2023/08/02 08:43:04;;;;;;;7.90;6.35;;;;;;;28.17;46.78;64917.81;5078392;28;20246;-75
2023/08/02 08:45:32;;;;;;;6.93;6.43;;;;;;;28.28;46.48;64934.59;5076976;28;20254;-77
2023/08/02 08:48:00;;;;;;;6.50;5.88;;;;;;;28.46;45.90;64953.50;5077865;28;20533;-76
2023/08/02 08:50:28;;;;;;;6.40;6.00;;;;;;;28.49;44.76;64959.28;5074429;28;20307;-76
2023/08/02 08:52:57;;;;;;;7.05;5.97;;;;;;;28.34;44.85;64943.50;5075507;28;20303;-77
2023/08/02 08:55:29;;;;;;;7.50;6.80;;;;;;;28.46;45.44;64948.25;5078624;28;20196;-77
2023/08/02 08:57:56;;;;;;;6.35;5.85;;;;;;;28.38;44.70;64947.72;5079513;28;20223;-76
2023/08/02 09:00:24;;;;;;;6.82;5.85;;;;;;;28.30;46.14;64937.22;5085438;28;20256;-77
2023/08/02 09:02:52;;;;;;;8.70;6.90;;;;;;;28.20;47.63;64923.56;5079398;28;20244;-77
2023/08/02 09:05:21;;;;;;;7.65;7.03;;;;;;;28.21;48.21;64924.63;5082813;28;20203;-77
2023/08/02 09:07:48;;;;;;;8.18;7.57;;;;;;;28.23;47.73;64926.72;5080062;28;20216;-76
2023/08/02 09:10:16;;;;;;;8.10;7.30;;;;;;;28.26;47.48;64937.72;5077419;28;20231;-75
2023/08/02 09:12:45;;;;;;;8.43;7.65;;;;;;;28.46;46.90;64950.34;5083848;28;20207;-76
2023/08/02 09:15:15;;;;;;;11.60;7.47;;;;;;;28.67;46.95;64972.94;5081182;28;21730;-78
2023/08/02 09:17:48;;;;;;;7.65;7.05;;;;;;;28.80;46.02;64988.69;5081941;28;21888;-76
2023/08/02 09:20:16;;;;;;;7.65;6.47;;;;;;;28.79;46.58;64990.25;5084012;28;20239;-76
2023/08/02 09:22:45;;;;;;;8.18;7.40;;;;;;;29.00;45.97;65012.31;5077081;28;20201;-77
2023/08/02 09:25:24;;;;;;;10.52;5.95;;;;;;;28.76;43.16;64984.50;5078657;28;20255;-79
2023/08/02 09:27:52;;;;;;;8.80;6.32;;;;;;;28.90;44.20;64999.72;5073008;28;20545;-78
2023/08/02 09:30:27;;;;;;;5.82;5.35;;;;;;;29.10;42.23;65026.00;5078767;28;20258;-77
2023/08/02 09:33:02;;;;;;;6.15;5.55;;;;;;;29.37;42.65;65046.50;5072561;28;20224;-76
2023/08/02 09:35:31;;;;;;;5.43;5.03;;;;;;;29.61;40.50;65076.44;5080760;28;20236;-76
2023/08/02 09:38:00;;;;;;;7.70;5.78;;;;;;;29.61;41.00;65075.91;5075997;28;20228;-78
2023/08/02 09:40:38;;;;;;;4.93;4.38;;;;;;;29.65;38.11;65080.13;5074872;28;20224;-77
2023/08/02 09:43:11;;;;;;;4.30;4.07;;;;;;;29.60;38.81;65072.75;5079725;28;20524;-77
2023/08/02 09:45:39;;;;;;;4.30;4.00;;;;;;;29.86;36.82;65100.13;5074719;28;20250;-77
2023/08/02 09:48:06;;;;;;;5.57;4.68;;;;;;;29.91;37.05;65105.38;5075739;28;20216;-77
2023/08/02 09:50:33;;;;;;;3.75;3.55;;;;;;;29.65;37.05;65077.50;5080959;28;20196;-78
2023/08/02 09:53:14;;;;;;;5.13;3.92;;;;;;;29.43;37.98;65055.44;5079843;28;20216;-76
2023/08/02 09:55:44;;;;;;;5.22;4.80;;;;;;;29.47;37.38;65057.00;5083037;28;20188;-76
2023/08/02 09:58:13;;;;;;;4.55;4.30;;;;;;;29.49;37.45;65058.59;5082362;28;22651;-76
2023/08/02 10:00:41;;;;;;;4.10;3.80;;;;;;;29.32;37.71;65040.72;5077887;28;20220;-76
2023/08/02 10:03:08;;;;;;;6.20;4.00;;;;;;;29.03;37.74;65012.84;5075497;28;20541;-77
2023/08/02 10:05:37;;;;;;;3.63;3.42;;;;;;;28.99;37.31;65009.16;5076791;28;20243;-77
2023/08/02 10:08:07;;;;;;;5.18;3.95;;;;;;;29.37;37.72;65051.22;5078932;28;20501;-76
2023/08/02 10:10:39;;;;;;;5.40;3.95;;;;;;;29.54;37.23;65069.59;5083107;28;20208;-77
2023/08/02 10:13:13;;;;;;;5.40;4.25;;;;;;;29.62;36.87;65074.88;5082206;28;20537;-76
2023/08/02 10:15:41;;;;;;;6.00;4.90;;;;;;;29.73;37.06;65083.84;5081444;28;20202;-78
2023/08/02 10:18:09;;;;;;;4.60;4.13;;;;;;;29.27;37.20;65038.63;5076165;28;20306;-78
2023/08/02 10:20:38;;;;;;;5.13;4.63;;;;;;;29.06;37.79;65019.16;5082161;28;20535;-77
2023/08/02 10:23:07;;;;;;;5.20;4.90;;;;;;;29.07;38.10;65014.97;5077740;28;20232;-77
2023/08/02 10:25:37;;;;;;;5.72;5.22;;;;;;;29.13;39.12;65020.75;5083352;28;20512;-77
2023/08/02 10:28:04;;;;;;;5.15;4.82;;;;;;;29.16;39.16;65029.16;5089294;28;20258;-77
2023/08/02 10:30:32;;;;;;;5.15;4.80;;;;;;;29.05;38.87;65012.31;5086334;28;20230;-76
2023/08/02 10:33:13;;;;;;;6.13;4.47;;;;;;;29.08;39.07;65021.25;5088764;28;20294;-77
2023/08/02 10:36:00;;;;;;;7.05;4.10;;;;;;;29.35;38.23;65041.25;5087043;28;20199;-77
2023/08/02 10:38:47;;;;;;;4.45;4.05;;;;;;;29.52;37.46;65067.00;5088045;28;20220;-76
2023/08/02 10:41:16;;;;;;;5.20;4.90;;;;;;;29.43;36.90;65049.66;5088038;28;20582;-76
2023/08/02 10:44:10;;;;;;;4.03;3.75;;;;;;;29.27;36.96;65040.72;5087555;28;20534;-77
2023/08/02 10:46:37;;;;;;;3.78;3.58;;;;;;;29.02;37.64;65009.19;5088143;28;20230;-76
2023/08/02 10:49:38;;;;;;;6.43;4.47;;;;;;;29.26;38.20;65037.56;5085258;28;20220;-78
2023/08/02 10:52:27;;;;;;;4.90;4.60;;;;;;;29.43;37.81;65054.91;5084717;28;20207;-75
2023/08/02 10:55:16;;;;;;;5.55;4.47;;;;;;;29.47;37.70;65059.63;5085486;28;20512;-78
2023/08/02 10:58:05;;;;;;;4.82;4.43;;;;;;;29.39;38.83;65048.59;5087138;28;20238;-75
2023/08/02 11:00:33;;;;;;;8.93;4.72;;;;;;;29.54;38.77;65066.47;5080794;28;20231;-77
2023/08/02 11:03:01;;;;;;;5.43;4.65;;;;;;;29.56;37.92;65060.69;5078680;28;20529;-76
2023/08/02 11:05:41;;;;;;;5.20;4.65;;;;;;;29.64;38.49;65076.44;5086657;28;20235;-75
2023/08/02 11:08:09;;;;;;;6.75;4.47;;;;;;;29.62;37.75;65074.34;5080486;28;20221;-77
2023/08/02 11:10:50;;;;;;;4.82;4.53;;;;;;;29.37;38.53;65049.13;5086107;28;20294;-76
2023/08/02 11:13:17;;;;;;;7.25;4.80;;;;;;;29.47;38.01;65059.63;5086018;28;20219;-77
2023/08/02 11:15:44;;;;;;;8.98;5.38;;;;;;;29.63;38.17;65075.41;5083962;28;20203;-76
2023/08/02 11:18:11;;;;;;;7.05;5.10;;;;;;;29.91;38.05;65102.75;5085691;28;20231;-76
2023/08/02 11:20:39;;;;;;;5.43;5.03;;;;;;;29.98;38.03;65106.94;5085513;28;20456;-77
2023/08/02 11:23:21;;;;;;;5.05;4.65;;;;;;;29.75;37.65;65088.03;5085474;28;20231;-76
2023/08/02 11:25:50;;;;;;;5.53;5.10;;;;;;;29.73;37.69;65091.72;5085030;28;20234;-78
2023/08/02 11:28:17;;;;;;;6.15;4.40;;;;;;;29.81;37.48;65094.84;5083339;28;20222;-77
2023/08/02 11:30:51;;;;;;;6.00;4.57;;;;;;;30.03;37.69;65115.34;5081090;28;20200;-80
2023/08/02 11:33:18;;;;;;;4.47;4.18;;;;;;;30.43;37.31;65160.06;5078597;28;20231;-76
2023/08/02 11:35:46;;;;;;;5.05;4.75;;;;;;;30.41;36.26;65157.97;5082343;28;20204;-77
2023/08/02 11:38:13;;;;;;;4.82;4.45;;;;;;;30.20;36.68;65138.47;5084876;28;20220;-78